Latest Weather Observations for Mount Read

IDT60801

Issued at 6:41 pm EST Wednesday 10 August 2022 (issued every 10 minutes, with the page automatically refreshed every 10 minutes)

About weather observations | Map of weather stations | Latest weather observations for TAS | Other Formats
Station Details ID: 097085 Name: MOUNT READ Lat: -41.84 Lon: 145.54 Height: 1119.5 m
Data from the previous 72 hours. | See also: Recent months at Mount Read
Date/Time
EST
Temp
°C
App
Temp
°C
Dew
Point
°C
Rel
Hum
%
Delta-T
°C
Wind Press
QNH
hPa
Press
MSL
hPa
Rain since
9am
mm
Dir  Spd
km/h
Gust
km/h
Spd
kts
Gust
kts
10/06:30pm 0.4 -10.3 0.1 98 0.1 NNE 46 59 25 32 1019.5 1021.9 0.0
10/06:00pm 0.7 -10.4 0.1 96 0.2 NNE 48 69 26 37 1019.2 1021.7 0.0
10/05:33pm 0.9 -10.2 0.3 96 0.2 NNE 48 67 26 36 1019.3 1021.8 0.0
10/05:30pm 0.9 -10.9 0.2 95 0.3 NNE 52 67 28 36 1019.1 1021.6 0.0
10/05:00pm 1.0 -10.9 -0.3 91 0.5 NNE 52 65 28 35 1019.3 1021.8 0.0
10/04:30pm 1.1 -10.8 -0.4 90 0.6 NNE 52 67 28 36 1019.8 1022.2 0.0
10/04:08pm 1.2 -10.7 -0.6 88 0.7 NNE 52 72 28 39 1019.8 1022.2 0.0
10/04:00pm 1.2 -11.2 -0.9 86 0.8 NNE 54 70 29 38 1019.7 1022.1 0.0
10/03:49pm 1.3 -9.1 -0.3 89 0.6 NNE 44 63 24 34 1019.9 1022.4 0.0
10/03:30pm 1.4 -9.8 -0.5 87 0.7 NNE 48 61 26 33 1020.0 1022.5 0.0
10/03:00pm 2.0 -8.2 -0.4 84 0.9 NNE 43 57 23 31 1020.6 1023.0 0.0
10/02:33pm 2.6 -8.2 -0.5 80 1.2 NNE 46 65 25 35 1020.8 1023.3 0.0
10/02:30pm 2.4 -9.2 -0.7 80 1.2 NNE 50 65 27 35 1020.8 1023.3 0.0
10/02:05pm 2.1 -8.2 -0.8 81 1.1 NNE 43 61 23 33 1021.1 1023.6 0.0
10/02:00pm 2.2 -8.1 -0.9 80 1.2 NNE 43 61 23 33 1021.2 1023.7 0.0
10/01:30pm 2.7 -8.6 -1.1 76 1.5 NNE 48 67 26 36 1021.7 1024.2 0.0
10/01:04pm 2.7 -8.9 -0.9 77 1.4 NNE 50 69 27 37 1022.1 1024.6 0.0
10/01:00pm 2.4 -9.6 -1.2 77 1.4 NNE 52 69 28 37 1022.1 1024.6 0.0
10/12:30pm 2.8 -7.7 -1.0 76 1.5 NNE 44 56 24 30 1023.0 1025.6 0.0
10/12:03pm 3.3 -7.6 -0.9 74 1.7 NNE 46 69 25 37 1023.2 1025.8 0.0
10/12:00pm 3.3 -7.1 -0.7 75 1.6 NNE 44 57 24 31 1023.4 1025.9 0.0
10/11:40am 3.2 -6.7 -1.2 73 1.7 NNE 41 63 22 34 1023.5 1026.0 0.0
10/11:30am 3.4 -5.7 -0.4 76 1.5 NNE 37 48 20 26 1023.7 1026.3 0.0
10/11:00am 2.9 -4.3 0.5 84 1.0 NNE 28 39 15 21 1024.1 1026.7 0.0
10/10:30am 1.8 -5.2 -0.8 83 1.0 NNE 26 37 14 20 1024.2 1026.8 0.0
10/10:00am 1.3 -6.1 -0.5 88 0.7 N 28 41 15 22 1024.2 1026.8 0.0
10/09:58am 1.2 -6.2 -1.0 85 0.8 N 28 41 15 22 1024.4 1026.9 0.0
10/09:30am 0.8 -8.3 -0.6 90 0.5 NNE 37 50 20 27 1024.2 1026.8 0.0
10/09:00am 0.6 -9.7 -1.2 88 0.7 NNE 43 52 23 28 1024.4 1026.9 0.0
10/08:30am 0.3 -9.5 -0.4 95 0.3 NNE 41 46 22 25 1024.7 1027.3 0.0
10/08:00am 0.3 -8.8 -0.7 93 0.4 NNE 37 43 20 23 1025.1 1027.7 0.0
10/07:30am -0.2 -9.4 -1.0 94 0.3 NNE 37 46 20 25 1025.3 1027.9 0.0
10/07:00am -0.3 -9.8 -1.1 94 0.3 NNE 39 48 21 26 1025.3 1027.9 0.0
10/06:30am -0.5 -8.5 -2.4 87 0.7 N 30 32 16 17 1025.3 1027.9 0.0
10/06:00am -0.2 -7.5 -2.7 83 0.9 NNE 26 30 14 16 1024.9 1027.5 0.0
10/05:30am -0.3 -7.2 -2.7 84 0.9 NNE 24 30 13 16 1024.7 1027.3 0.0
10/05:00am -0.3 -8.3 -2.5 85 0.8 NNE 30 35 16 19 1024.6 1027.2 0.0
10/04:30am -0.2 -7.9 -2.6 84 0.9 NE 28 32 15 17 1024.6 1027.2 0.0
10/04:00am -0.1 -7.8 -2.6 83 0.9 NE 28 35 15 19 1024.7 1027.3 0.0
10/03:30am 0.1 -6.0 -2.6 82 1.0 NE 20 30 11 16 1024.8 1027.4 0.0
10/03:00am 0.3 -6.9 -2.1 84 0.9 NNE 26 32 14 17 1024.9 1027.5 0.0
10/02:30am 0.5 -8.0 -1.6 86 0.8 NE 33 39 18 21 1025.1 1027.7 0.0
10/02:00am 0.3 -7.1 -1.0 91 0.5 NNE 28 35 15 19 1025.3 1027.9 0.0
10/01:30am 0.4 -6.6 -0.6 93 0.4 NNE 26 32 14 17 1025.8 1028.4 0.0
10/01:00am 0.5 -6.9 -0.8 91 0.5 NNE 28 32 15 17 1025.9 1028.5 0.0
10/12:30am 0.8 -5.4 -0.3 92 0.4 NNE 22 32 12 17 1025.8 1028.4 0.0
10/12:00am 0.5 -6.4 0.4 99 0.0 NNE 26 35 14 19 1025.5 1028.1 0.0
 
Date/Time
EST
Temp
°C
App
Temp
°C
Dew
Point
°C
Rel
Hum
%
Delta-T
°C
Wind Press
QNH
hPa
Press
MSL
hPa
Rain since
9am
mm
Dir  Spd
km/h
Gust
km/h
Spd
kts
Gust
kts
09/11:30pm 0.8 -6.0 0.8 100 0.0 NNE 26 39 14 21 1025.4 1028.0 0.0
09/11:00pm 1.6 -4.3 1.6 100 0.0 NNE 22 26 12 14 1025.7 1028.3 0.0
09/10:30pm 1.8 -3.7 1.8 100 0.0 N 20 24 11 13 1026.0 1028.7 0.0
09/10:00pm 2.0 -3.9 2.0 100 0.0 N 22 26 12 14 1025.8 1028.4 0.0
09/09:30pm 2.0 -2.9 2.0 100 0.0 NNE 17 22 9 12 1025.8 1028.4 0.0
09/09:00pm 1.7 -2.9 1.6 99 0.0 NNE 15 17 8 9 1026.0 1028.7 0.0
09/08:30pm 2.1 -1.4 1.2 94 0.4 N 9 11 5 6 1026.0 1028.7 0.0
09/08:00pm 2.2 -0.8 1.0 92 0.5 N 6 7 3 4 1025.9 1028.5 0.0
09/07:30pm 2.0 -0.9 1.3 95 0.3 E 6 9 3 5 1025.8 1028.4 0.0
09/07:00pm 2.2 -0.7 1.2 93 0.4 SE 6 7 3 4 1025.6 1028.2 0.0
09/06:30pm 2.1 0.0 1.4 95 0.3 SSW 2 4 1 2 1025.6 1028.2 0.0
09/06:00pm 2.1 -0.7 2.1 100 0.0 SSW 6 7 3 4 1025.5 1028.1 0.0
09/05:30pm 2.5 -0.4 2.5 100 0.0 SSW 7 9 4 5 1025.4 1028.0 0.0
09/05:00pm 3.0 0.2 2.9 99 0.0 SSW 7 9 4 5 1025.4 1028.0 0.0
09/04:30pm 3.9 1.0 2.4 90 0.6 SSW 7 9 4 5 1025.4 1028.0 0.0
09/04:00pm 4.3 2.3 2.2 86 0.9 SE 2 9 1 5 1025.3 1027.9 0.0
09/03:30pm 5.4 3.4 2.1 79 1.4 E 2 6 1 3 1025.3 1027.9 0.0
09/03:00pm 4.5 2.5 2.2 85 1.0 WSW 2 4 1 2 1025.1 1027.7 0.0
09/02:30pm 3.2 1.0 1.3 87 0.8 SW 2 6 1 3 1025.0 1027.6 0.0
09/02:00pm 3.4 0.9 1.4 87 0.8 SW 4 6 2 3 1025.0 1027.6 0.0
09/01:30pm 5.6 3.0 3.1 84 1.1 NNW 6 9 3 5 1025.1 1027.7 0.0
09/01:00pm 6.1 3.9 3.4 83 1.2 NNE 4 9 2 5 1025.4 1028.0 0.0
09/12:30pm 4.6 1.8 2.1 84 1.1 ESE 6 15 3 8 1025.5 1028.1 0.0
09/12:00pm 4.0 1.4 0.9 80 1.3 S 4 19 2 10 1025.7 1028.3 0.0
09/11:30am 3.7 1.3 1.9 88 0.8 SSE 4 6 2 3 1025.7 1028.3 0.0
09/11:00am 4.3 1.9 2.3 87 0.9 ENE 4 9 2 5 1025.8 1028.4 0.0
09/10:30am 4.9 3.1 3.6 91 0.6 ESE 2 7 1 4 1025.7 1028.3 0.0
09/10:00am 3.6 1.5 1.6 87 0.8 NE 2 6 1 3 1025.6 1028.2 0.0
09/09:30am 2.3 0.1 1.0 91 0.5 W 2 4 1 2 1025.6 1028.2 0.0
09/09:00am 2.2 -0.5 0.6 89 0.6 NNW 4 7 2 4 1025.6 1028.2 0.6
09/08:30am 1.4 -1.9 -0.1 90 0.6 WNW 7 11 4 6 1025.4 1028.0 0.6
09/08:00am 0.7 -2.5 -0.7 90 0.5 SW 6 9 3 5 1025.1 1027.7 0.4
09/07:30am 0.2 -3.0 -0.2 97 0.2 WSW 6 7 3 4 1024.9 1027.5 0.4
09/07:00am -0.1 -3.3 -0.7 96 0.2 WNW 6 6 3 3 1024.6 1027.2 0.4
09/06:30am 0.1 -3.1 -0.7 94 0.3 NNW 6 7 3 4 1024.4 1026.9 0.4
09/06:00am 0.2 -3.2 -0.6 94 0.3 NNW 7 9 4 5 1024.0 1026.6 0.4
09/05:30am 0.2 -3.2 -0.6 94 0.3 NNW 7 9 4 5 1023.8 1026.4 0.4
09/05:00am 0.3 -3.1 -0.5 94 0.3 NNW 7 7 4 4 1023.8 1026.4 0.4
09/04:30am 0.4 -2.4 -0.5 94 0.3 NNE 4 6 2 3 1023.6 1026.1 0.4
09/04:00am 0.4 -3.0 -0.5 94 0.3 NE 7 9 4 5 1023.4 1025.9 0.4
09/03:30am 0.4 -3.3 -0.3 95 0.3 N 9 15 5 8 1023.5 1026.0 0.4
09/03:00am 0.6 -3.5 0.0 96 0.2 NNW 11 17 6 9 1023.7 1026.3 0.4
09/02:30am 0.6 -3.5 0.0 96 0.2 NNW 11 17 6 9 1023.7 1026.3 0.4
09/02:00am 0.7 -2.0 0.1 96 0.2 NW 4 9 2 5 1023.9 1026.5 0.4
09/01:30am 0.7 -2.0 0.3 97 0.2 N 4 7 2 4 1023.8 1026.4 0.4
09/01:00am 0.7 -2.4 0.4 98 0.1 NW 6 13 3 7 1023.8 1026.4 0.4
09/12:30am 0.9 -1.8 0.6 98 0.1 NW 4 6 2 3 1023.8 1026.4 0.4
09/12:00am 0.9 -2.1 0.8 99 0.0 NNW 6 11 3 6 1023.8 1026.4 0.4
 
Date/Time
EST
Temp
°C
App
Temp
°C
Dew
Point
°C
Rel
Hum
%
Delta-T
°C
Wind Press
QNH
hPa
Press
MSL
hPa
Rain since
9am
mm
Dir  Spd
km/h
Gust
km/h
Spd
kts
Gust
kts
08/11:30pm 0.9 -2.1 0.6 98 0.1 NNW 6 9 3 5 1023.7 1026.3 0.4
08/11:00pm 1.0 -2.1 0.3 95 0.3 NNW 6 9 3 5 1023.7 1026.3 0.4
08/10:30pm 0.9 -2.3 0.6 98 0.1 NNW 7 11 4 6 1023.8 1026.4 0.4
08/10:00pm 1.0 -2.5 1.0 100 0.0 NW 9 13 5 7 1023.7 1026.3 0.4
08/09:30pm 1.0 -2.2 1.0 100 0.0 NNW 7 11 4 6 1023.6 1026.1 0.4
08/09:00pm 0.9 -2.3 0.9 100 0.0 NW 7 7 4 4 1023.5 1026.0 0.4
08/08:30pm 1.2 -1.8 1.1 99 0.0 NNW 6 7 3 4 1023.4 1025.9 0.4
08/08:00pm 1.3 -2.2 1.3 100 0.0 NW 9 11 5 6 1023.4 1025.9 0.4
08/07:30pm 1.5 -2.0 1.5 100 0.0 NW 9 11 5 6 1023.1 1025.7 0.4
08/07:00pm 1.3 -1.6 1.2 99 0.0 NNW 6 7 3 4 1022.9 1025.5 0.4
08/06:30pm 1.6 -1.8 1.6 100 0.0 NNW 9 13 5 7 1022.8 1025.3 0.4
08/06:00pm 1.6 -1.5 1.6 100 0.0 NNW 7 11 4 6 1022.7 1025.2 0.4
08/05:30pm 2.0 -1.8 1.6 97 0.2 NNW 11 15 6 8 1022.5 1025.0 0.0
08/05:00pm 2.1 -2.2 1.2 94 0.4 NNW 13 19 7 10 1022.1 1024.6 0.0
08/04:30pm 2.8 -1.1 1.3 90 0.6 NNW 11 17 6 9 1022.0 1024.5 0.0
08/04:00pm 3.5 -1.1 1.5 87 0.8 NNW 15 22 8 12 1021.9 1024.4 0.0
08/03:30pm 3.0 -0.1 1.4 89 0.7 NNW 7 11 4 6 1022.0 1024.5 0.0
08/03:00pm 3.3 -1.1 0.5 82 1.1 N 13 20 7 11 1021.9 1024.4 0.0
08/02:30pm 3.6 -0.7 1.3 85 1.0 NNE 13 20 7 11 1021.7 1024.2 0.0
08/02:00pm 3.3 -0.2 1.2 86 0.9 N 9 17 5 9 1021.8 1024.3 0.0
08/01:30pm 3.3 -0.6 1.0 85 1.0 N 11 17 6 9 1022.0 1024.5 0.0
08/01:00pm 2.9 -1.0 1.0 87 0.8 N 11 19 6 10 1022.4 1024.9 0.0
08/12:30pm 3.3 -1.5 0.0 79 1.3 N 15 24 8 13 1022.5 1025.0 0.0
08/12:00pm 3.6 -0.7 1.3 85 1.0 N 13 20 7 11 1022.7 1025.2 0.0
08/11:30am 2.7 -2.4 0.8 87 0.8 N 17 22 9 12 1022.8 1025.3 0.0
08/11:00am 2.4 -3.2 0.0 84 1.0 N 19 24 10 13 1022.8 1025.3 0.0
08/10:30am 2.1 -3.8 -0.5 83 1.0 N 20 28 11 15 1022.4 1024.9 0.0
08/10:00am 0.5 -5.4 -1.1 89 0.6 N 20 32 11 17 1022.4 1024.9 0.0
08/09:30am 0.4 -5.9 -1.2 89 0.6 N 22 32 12 17 1022.4 1024.9 0.0
08/09:00am 0.9 -5.4 -1.3 85 0.8 N 22 30 12 16 1022.2 1024.8 0.2
08/08:30am 0.5 -6.2 -0.9 90 0.6 N 24 30 13 16 1022.1 1024.6 0.0
08/08:00am 0.1 -5.9 -1.2 91 0.5 NNE 20 28 11 15 1021.8 1024.3 0.0
08/07:30am -0.6 -6.6 -1.3 95 0.2 NNE 20 28 11 15 1021.6 1024.1 0.0
08/07:00am -0.7 -6.1 -1.5 94 0.3 NNE 17 20 9 11 1021.6 1024.1 0.0
08/06:30am -0.8 -6.6 -1.4 96 0.2 NNE 19 22 10 12 1021.4 1023.8 0.0
08/06:00am -0.6 -6.4 -1.2 96 0.2 NNE 19 24 10 13 1021.1 1023.6 0.0
08/05:30am -0.3 -6.2 -1.0 95 0.3 NNE 20 28 11 15 1021.0 1023.5 0.0
08/05:00am -0.4 -6.3 -0.8 97 0.1 NNE 20 26 11 14 1020.9 1023.4 0.0
08/04:30am -0.5 -6.7 -0.6 99 0.0 NNE 22 32 12 17 1020.7 1023.2 0.0
08/04:00am -0.5 -6.7 -0.6 99 0.0 NNE 22 28 12 15 1020.6 1023.0 0.0
08/03:30am -0.7 -7.7 -0.8 99 0.0 NNE 26 32 14 17 1020.5 1022.9 0.0
08/03:00am -0.8 -7.1 -1.1 98 0.1 NNE 22 30 12 16 1020.5 1022.9 0.0
08/02:30am -0.5 -7.6 -1.1 96 0.2 NNE 26 33 14 18 1020.5 1022.9 0.0
08/02:00am -0.5 -7.2 -1.2 95 0.2 NNE 24 33 13 18 1020.5 1022.9 0.0
08/01:30am -0.2 -6.9 -1.3 92 0.4 NNE 24 32 13 17 1020.5 1022.9 0.0
08/01:00am -0.3 -7.4 -1.4 92 0.4 NNE 26 35 14 19 1020.3 1022.8 0.0
08/12:30am -0.3 -7.5 -1.7 90 0.5 NNE 26 33 14 18 1020.6 1023.0 0.0
08/12:00am -0.1 -7.3 -2.0 87 0.7 NNE 26 32 14 17 1020.5 1022.9 0.0
 
Date/Time
EST
Temp
°C
App
Temp
°C
Dew
Point
°C
Rel
Hum
%
Delta-T
°C
Wind Press
QNH
hPa
Press
MSL
hPa
Rain since
9am
mm
Dir  Spd
km/h
Gust
km/h
Spd
kts
Gust
kts
07/11:30pm -0.4 -8.3 -1.8 90 0.5 NNE 30 35 16 19 1020.6 1023.0 0.0
07/11:00pm -0.3 -7.8 -1.4 92 0.4 NNE 28 35 15 19 1020.3 1022.8 0.0
07/10:30pm -0.4 -7.5 -1.2 94 0.3 NNE 26 32 14 17 1020.5 1022.9 0.0
07/10:00pm -0.3 -7.0 -1.0 95 0.2 NNE 24 30 13 16 1020.5 1022.9 0.0
07/09:30pm -0.3 -6.9 -0.7 97 0.1 NNE 24 30 13 16 1020.3 1022.8 0.0
07/09:00pm -0.2 -7.2 -0.8 96 0.2 NNE 26 32 14 17 1020.1 1022.6 0.0
07/08:30pm -0.2 -6.1 -0.6 97 0.1 NNE 20 24 11 13 1020.1 1022.6 0.0
07/08:00pm 0.0 -4.6 -0.7 95 0.3 NNE 13 17 7 9 1019.9 1022.4 0.0
07/07:30pm 0.2 -5.5 -0.8 93 0.4 N 19 24 10 13 1019.8 1022.2 0.0
07/07:00pm 0.6 -3.7 -1.3 87 0.8 N 11 17 6 9 1019.6 1022.0 0.0

Other formats

Comma delimited format used in spreadsheet applications
http://www.bom.gov.au/fwo/IDT60801/IDT60801.95952.axf

JavaScript Object Notation format (JSON) in row-major order
http://www.bom.gov.au/fwo/IDT60801/IDT60801.95952.json

Data quality

Most of these data are generated automatically and are frequently updated. Quality checks on data are not normally performed. It is possible for incorrect values to appear. Refer to information at About Latest Weather Observations and please check the disclaimer before using these data.